sensor_id;sensor_type;location;lat;lon;timestamp;pressure;altitude;pressure_sealevel;temperature;humidity
48614;BME280;34408;51.426;5.444;2022-09-28T00:00:04;99530.66;;;12.15;64.15
48614;BME280;34408;51.426;5.444;2022-09-28T00:02:32;99529.84;;;12.14;63.82
48614;BME280;34408;51.426;5.444;2022-09-28T00:05:01;99535.22;;;12.14;64.17
48614;BME280;34408;51.426;5.444;2022-09-28T00:07:29;99541.44;;;12.15;63.90
48614;BME280;34408;51.426;5.444;2022-09-28T00:09:58;99533.91;;;12.12;63.84
48614;BME280;34408;51.426;5.444;2022-09-28T00:12:26;99525.00;;;12.11;63.69
48614;BME280;34408;51.426;5.444;2022-09-28T00:14:55;99531.75;;;12.09;63.80
48614;BME280;34408;51.426;5.444;2022-09-28T00:17:22;99534.44;;;12.09;63.68
48614;BME280;34408;51.426;5.444;2022-09-28T00:19:51;99535.50;;;12.08;63.92
48614;BME280;34408;51.426;5.444;2022-09-28T00:22:19;99532.81;;;12.08;63.87
48614;BME280;34408;51.426;5.444;2022-09-28T00:24:47;99539.28;;;12.07;63.91
48614;BME280;34408;51.426;5.444;2022-09-28T00:27:16;99537.66;;;12.05;63.92
48614;BME280;34408;51.426;5.444;2022-09-28T00:29:44;99538.72;;;12.04;63.92
48614;BME280;34408;51.426;5.444;2022-09-28T00:32:12;99537.38;;;12.02;64.07
48614;BME280;34408;51.426;5.444;2022-09-28T00:34:42;99514.44;;;11.94;63.93
48614;BME280;34408;51.426;5.444;2022-09-28T00:37:12;99526.59;;;12.02;64.14
48614;BME280;34408;51.426;5.444;2022-09-28T00:39:40;99526.59;;;12.02;63.93
48614;BME280;34408;51.426;5.444;2022-09-28T00:42:12;99525.78;;;12.01;64.00
48614;BME280;34408;51.426;5.444;2022-09-28T00:44:45;99527.41;;;12.02;63.95
48614;BME280;34408;51.426;5.444;2022-09-28T00:47:23;99527.66;;;12.01;63.90
48614;BME280;34408;51.426;5.444;2022-09-28T00:49:56;99512.59;;;12.00;63.98
48614;BME280;34408;51.426;5.444;2022-09-28T00:52:30;99513.41;;;12.00;64.18
48614;BME280;34408;51.426;5.444;2022-09-28T00:55:01;99509.91;;;12.00;64.29
48614;BME280;34408;51.426;5.444;2022-09-28T00:57:30;99512.59;;;12.00;64.12
48614;BME280;34408;51.426;5.444;2022-09-28T01:00:01;99516.91;;;12.01;64.26
48614;BME280;34408;51.426;5.444;2022-09-28T01:02:30;99506.38;;;11.99;64.32
48614;BME280;34408;51.426;5.444;2022-09-28T01:04:58;99501.00;;;11.99;64.07
48614;BME280;34408;51.426;5.444;2022-09-28T01:07:26;99498.31;;;11.99;64.15
48614;BME280;34408;51.426;5.444;2022-09-28T01:09:55;99502.63;;;12.00;64.35
48614;BME280;34408;51.426;5.444;2022-09-28T01:12:23;99502.88;;;11.99;64.32
48614;BME280;34408;51.426;5.444;2022-09-28T01:14:51;99499.13;;;12.00;64.27
48614;BME280;34408;51.426;5.444;2022-09-28T01:17:24;99487.53;;;11.99;64.24
48614;BME280;34408;51.426;5.444;2022-09-28T01:25:52;99497.22;;;11.95;64.50
48614;BME280;34408;51.426;5.444;2022-09-28T01:28:25;99502.34;;;11.97;64.64
48614;BME280;34408;51.426;5.444;2022-09-28T01:31:00;99505.84;;;11.97;64.41
48614;BME280;34408;51.426;5.444;2022-09-28T01:33:35;99504.22;;;11.96;64.83
48614;BME280;34408;51.426;5.444;2022-09-28T01:36:08;99503.41;;;11.96;64.57
48614;BME280;34408;51.426;5.444;2022-09-28T01:38:41;99507.19;;;11.95;64.77
48614;BME280;34408;51.426;5.444;2022-09-28T01:41:11;99504.50;;;11.95;64.71
48614;BME280;34408;51.426;5.444;2022-09-28T01:43:44;99509.88;;;11.95;64.82
48614;BME280;34408;51.426;5.444;2022-09-28T01:46:16;99510.94;;;11.94;64.85
48614;BME280;34408;51.426;5.444;2022-09-28T01:48:49;99517.41;;;11.93;64.58
48614;BME280;34408;51.426;5.444;2022-09-28T01:51:23;99514.72;;;11.93;65.06
48614;BME280;34408;51.426;5.444;2022-09-28T01:53:54;99514.44;;;11.89;64.91
48614;BME280;34408;51.426;5.444;2022-09-28T01:56:27;99517.13;;;11.89;65.11
48614;BME280;34408;51.426;5.444;2022-09-28T01:59:03;99522.75;;;11.88;65.09
48614;BME280;34408;51.426;5.444;2022-09-28T02:01:37;99512.25;;;11.86;64.85
48614;BME280;34408;51.426;5.444;2022-09-28T02:04:11;99516.03;;;11.85;65.17
48614;BME280;34408;51.426;5.444;2022-09-28T02:06:44;99509.56;;;11.86;65.00
48614;BME280;34408;51.426;5.444;2022-09-28T02:09:17;99508.75;;;11.86;64.93
48614;BME280;34408;51.426;5.444;2022-09-28T02:11:50;99505.25;;;11.85;65.27
48614;BME280;34408;51.426;5.444;2022-09-28T02:14:22;99503.38;;;11.86;65.27
48614;BME280;34408;51.426;5.444;2022-09-28T02:16:52;99510.66;;;11.85;65.20
48614;BME280;34408;51.426;5.444;2022-09-28T02:19:22;99495.00;;;11.77;65.25
48614;BME280;34408;51.426;5.444;2022-09-28T02:21:55;99508.22;;;11.84;64.92
48614;BME280;34408;51.426;5.444;2022-09-28T02:24:27;99508.22;;;11.84;65.18
48614;BME280;34408;51.426;5.444;2022-09-28T02:27:02;99510.91;;;11.84;65.04
48614;BME280;34408;51.426;5.444;2022-09-28T02:29:36;99510.91;;;11.84;65.18
48614;BME280;34408;51.426;5.444;2022-09-28T02:32:04;99512.25;;;11.81;65.09
48614;BME280;34408;51.426;5.444;2022-09-28T02:34:32;99510.09;;;11.83;64.88
48614;BME280;34408;51.426;5.444;2022-09-28T02:37:02;99506.59;;;11.83;64.96
48614;BME280;34408;51.426;5.444;2022-09-28T02:39:30;99514.94;;;11.81;65.08
48614;BME280;34408;51.426;5.444;2022-09-28T02:42:04;99508.47;;;11.82;64.77
48614;BME280;34408;51.426;5.444;2022-09-28T02:44:59;99513.84;;;11.82;65.02
48614;BME280;34408;51.426;5.444;2022-09-28T02:47:41;99506.84;;;11.81;65.03
48614;BME280;34408;51.426;5.444;2022-09-28T02:50:15;99518.69;;;11.80;64.82
48614;BME280;34408;51.426;5.444;2022-09-28T02:53:08;99512.50;;;11.80;64.88
48614;BME280;34408;51.426;5.444;2022-09-28T02:55:49;99512.50;;;11.80;64.76
48614;BME280;34408;51.426;5.444;2022-09-28T02:58:33;99512.50;;;11.80;64.55
48614;BME280;34408;51.426;5.444;2022-09-28T03:01:15;99517.88;;;11.80;64.48
48614;BME280;34408;51.426;5.444;2022-09-28T03:03:50;99518.97;;;11.79;64.43
48614;BME280;34408;51.426;5.444;2022-09-28T03:06:23;99524.34;;;11.79;64.69
48614;BME280;34408;51.426;5.444;2022-09-28T03:08:57;99516.25;;;11.79;64.64
48614;BME280;34408;51.426;5.444;2022-09-28T03:11:29;99523.75;;;11.77;64.57
48614;BME280;34408;51.426;5.444;2022-09-28T03:14:00;99519.44;;;11.76;64.40
48614;BME280;34408;51.426;5.444;2022-09-28T03:16:30;99512.44;;;11.74;64.39
48614;BME280;34408;51.426;5.444;2022-09-28T03:18:58;99495.41;;;11.59;64.55
48614;BME280;34408;51.426;5.444;2022-09-28T03:21:26;99520.53;;;11.74;64.36
48614;BME280;34408;51.426;5.444;2022-09-28T03:23:54;99527.78;;;11.74;64.51
48614;BME280;34408;51.426;5.444;2022-09-28T03:26:21;99526.97;;;11.73;64.40
48614;BME280;34408;51.426;5.444;2022-09-28T03:28:49;99525.09;;;11.74;64.54
48614;BME280;34408;51.426;5.444;2022-09-28T03:31:17;99524.28;;;11.73;64.34
48614;BME280;34408;51.426;5.444;2022-09-28T03:33:46;99523.47;;;11.73;64.43
48614;BME280;34408;51.426;5.444;2022-09-28T03:36:14;99523.47;;;11.73;64.48
48614;BME280;34408;51.426;5.444;2022-09-28T03:38:42;99520.78;;;11.73;64.43
48614;BME280;34408;51.426;5.444;2022-09-28T03:41:10;99516.47;;;11.72;64.48
48614;BME280;34408;51.426;5.444;2022-09-28T03:43:38;99515.66;;;11.71;64.32
48614;BME280;34408;51.426;5.444;2022-09-28T03:46:05;99514.59;;;11.72;64.56
48614;BME280;34408;51.426;5.444;2022-09-28T03:48:35;99516.72;;;11.70;64.42
48614;BME280;34408;51.426;5.444;2022-09-28T03:51:05;99519.44;;;11.70;64.59
48614;BME280;34408;51.426;5.444;2022-09-28T03:53:34;99532.06;;;11.70;64.50
48614;BME280;34408;51.426;5.444;2022-09-28T03:56:03;99518.63;;;11.70;64.46
48614;BME280;34408;51.426;5.444;2022-09-28T03:58:31;99532.06;;;11.70;64.53
48614;BME280;34408;51.426;5.444;2022-09-28T04:01:03;99518.88;;;11.68;64.53
48614;BME280;34408;51.426;5.444;2022-09-28T04:03:32;99528.03;;;11.67;64.34
48614;BME280;34408;51.426;5.444;2022-09-28T04:06:00;99526.13;;;11.68;64.49
48614;BME280;34408;51.426;5.444;2022-09-28T04:08:30;99527.22;;;11.67;64.48
48614;BME280;34408;51.426;5.444;2022-09-28T04:10:58;99509.13;;;11.57;64.48
48614;BME280;34408;51.426;5.444;2022-09-28T04:13:27;99516.72;;;11.65;64.47
48614;BME280;34408;51.426;5.444;2022-09-28T04:15:56;99521.28;;;11.65;64.57
48614;BME280;34408;51.426;5.444;2022-09-28T04:18:24;99524.22;;;11.63;64.44
48614;BME280;34408;51.426;5.444;2022-09-28T04:21:00;99526.94;;;11.63;64.57
48614;BME280;34408;51.426;5.444;2022-09-28T04:23:34;99525.84;;;11.64;64.27
48614;BME280;34408;51.426;5.444;2022-09-28T04:26:03;99519.59;;;11.54;64.46
48614;BME280;34408;51.426;5.444;2022-09-28T04:28:31;99531.75;;;11.61;64.64
48614;BME280;34408;51.426;5.444;2022-09-28T04:31:18;99535.25;;;11.62;64.34
48614;BME280;34408;51.426;5.444;2022-09-28T04:33:47;99529.06;;;11.61;64.33
48614;BME280;34408;51.426;5.444;2022-09-28T04:36:15;99528.25;;;11.61;64.52
48614;BME280;34408;51.426;5.444;2022-09-28T04:38:46;99523.13;;;11.59;64.38
48614;BME280;34408;51.426;5.444;2022-09-28T04:41:19;99518.56;;;11.60;64.58
48614;BME280;34408;51.426;5.444;2022-09-28T04:43:48;99516.13;;;11.58;64.36
48614;BME280;34408;51.426;5.444;2022-09-28T04:46:16;99506.13;;;11.49;64.48
48614;BME280;34408;51.426;5.444;2022-09-28T04:48:44;99520.97;;;11.56;64.61
48614;BME280;34408;51.426;5.444;2022-09-28T04:51:12;99519.09;;;11.57;64.60
48614;BME280;34408;51.426;5.444;2022-09-28T04:53:39;99519.59;;;11.54;64.40
48614;BME280;34408;51.426;5.444;2022-09-28T04:56:11;99519.59;;;11.54;64.57
48614;BME280;34408;51.426;5.444;2022-09-28T04:58:39;99519.59;;;11.54;64.50
48614;BME280;34408;51.426;5.444;2022-09-28T05:01:09;99522.28;;;11.54;64.68
48614;BME280;34408;51.426;5.444;2022-09-28T05:03:38;99531.19;;;11.54;64.57
48614;BME280;34408;51.426;5.444;2022-09-28T05:06:06;99519.88;;;11.52;64.42
48614;BME280;34408;51.426;5.444;2022-09-28T05:08:34;99529.56;;;11.53;64.58
48614;BME280;34408;51.426;5.444;2022-09-28T05:11:05;99523.63;;;11.51;64.49
48614;BME280;34408;51.426;5.444;2022-09-28T05:13:39;99534.38;;;11.51;64.50
48614;BME280;34408;51.426;5.444;2022-09-28T05:16:08;99527.88;;;11.42;64.34
48614;BME280;34408;51.426;5.444;2022-09-28T05:18:37;99534.91;;;11.48;64.30
48614;BME280;34408;51.426;5.444;2022-09-28T05:21:08;99537.59;;;11.48;64.28
48614;BME280;34408;51.426;5.444;2022-09-28T05:23:36;99537.03;;;11.46;64.27
48614;BME280;34408;51.426;5.444;2022-09-28T05:26:04;99545.94;;;11.47;64.30
48614;BME280;34408;51.426;5.444;2022-09-28T05:28:32;99547.81;;;11.46;64.40
48614;BME280;34408;51.426;5.444;2022-09-28T05:31:03;99550.50;;;11.46;64.20
48614;BME280;34408;51.426;5.444;2022-09-28T05:33:32;99549.69;;;11.46;64.23
48614;BME280;34408;51.426;5.444;2022-09-28T05:36:00;99539.75;;;11.46;64.26
48614;BME280;34408;51.426;5.444;2022-09-28T05:38:28;99545.38;;;11.45;64.34
48614;BME280;34408;51.426;5.444;2022-09-28T05:40:56;99543.50;;;11.45;64.29
48614;BME280;34408;51.426;5.444;2022-09-28T05:43:30;99540.81;;;11.45;64.37
48614;BME280;34408;51.426;5.444;2022-09-28T05:45:58;99540.00;;;11.45;64.38
48614;BME280;34408;51.426;5.444;2022-09-28T05:48:28;99542.69;;;11.45;64.21
48614;BME280;34408;51.426;5.444;2022-09-28T05:50:56;99540.53;;;11.47;64.36
48614;BME280;34408;51.426;5.444;2022-09-28T05:53:25;99516.56;;;11.40;64.23
48614;BME280;34408;51.426;5.444;2022-09-28T05:55:56;99536.50;;;11.44;64.25
48614;BME280;34408;51.426;5.444;2022-09-28T05:58:24;99544.31;;;11.46;64.43
48614;BME280;34408;51.426;5.444;2022-09-28T06:00:53;99551.31;;;11.47;64.42
48614;BME280;34408;51.426;5.444;2022-09-28T06:03:21;99547.53;;;11.48;64.44
48614;BME280;34408;51.426;5.444;2022-09-28T06:05:50;99554.53;;;11.49;64.51
48614;BME280;34408;51.426;5.444;2022-09-28T06:08:21;99552.66;;;11.49;64.52
48614;BME280;34408;51.426;5.444;2022-09-28T06:10:48;99546.75;;;11.47;64.44
48614;BME280;34408;51.426;5.444;2022-09-28T06:13:16;99557.50;;;11.47;64.50
48614;BME280;34408;51.426;5.444;2022-09-28T06:15:44;99558.81;;;11.45;64.71
48614;BME280;34408;51.426;5.444;2022-09-28T06:18:14;99567.97;;;11.44;64.65
48614;BME280;34408;51.426;5.444;2022-09-28T06:20:42;99568.78;;;11.44;64.52
48614;BME280;34408;51.426;5.444;2022-09-28T06:23:11;99570.66;;;11.44;64.48
48614;BME280;34408;51.426;5.444;2022-09-28T06:25:39;99570.91;;;11.42;64.53
48614;BME280;34408;51.426;5.444;2022-09-28T06:28:09;99570.38;;;11.40;64.49
48614;BME280;34408;51.426;5.444;2022-09-28T06:30:39;99571.97;;;11.41;64.54
48614;BME280;34408;51.426;5.444;2022-09-28T06:33:10;99577.38;;;11.41;64.68
48614;BME280;34408;51.426;5.444;2022-09-28T06:35:39;99571.97;;;11.41;64.64
48614;BME280;34408;51.426;5.444;2022-09-28T06:38:07;99580.06;;;11.41;64.47
48614;BME280;34408;51.426;5.444;2022-09-28T06:40:37;99574.69;;;11.41;64.70
48614;BME280;34408;51.426;5.444;2022-09-28T06:43:06;99576.81;;;11.39;64.84
48614;BME280;34408;51.426;5.444;2022-09-28T06:45:37;99574.69;;;11.41;64.81
48614;BME280;34408;51.426;5.444;2022-09-28T06:48:05;99586.00;;;11.43;64.93
48614;BME280;34408;51.426;5.444;2022-09-28T06:50:35;99584.38;;;11.42;64.85
48614;BME280;34408;51.426;5.444;2022-09-28T06:53:04;99581.69;;;11.42;64.84
48614;BME280;34408;51.426;5.444;2022-09-28T06:55:33;99588.69;;;11.43;64.74
48614;BME280;34408;51.426;5.444;2022-09-28T06:58:03;99587.59;;;11.44;64.78
48614;BME280;34408;51.426;5.444;2022-09-28T07:00:32;99592.72;;;11.46;64.87
48614;BME280;34408;51.426;5.444;2022-09-28T07:03:02;99598.13;;;11.46;64.77
48614;BME280;34408;51.426;5.444;2022-09-28T07:05:31;99601.88;;;11.45;64.82
48614;BME280;34408;51.426;5.444;2022-09-28T07:08:00;99603.50;;;11.46;64.86
48614;BME280;34408;51.426;5.444;2022-09-28T07:10:29;99607.50;;;11.43;65.00
48614;BME280;34408;51.426;5.444;2022-09-28T07:12:59;99608.88;;;11.46;64.96
48614;BME280;34408;51.426;5.444;2022-09-28T07:15:30;99604.56;;;11.45;65.15
48614;BME280;34408;51.426;5.444;2022-09-28T07:17:59;99607.25;;;11.45;65.20
48614;BME280;34408;51.426;5.444;2022-09-28T07:20:30;99608.88;;;11.46;65.21
48614;BME280;34408;51.426;5.444;2022-09-28T07:23:06;99606.19;;;11.46;65.24
48614;BME280;34408;51.426;5.444;2022-09-28T07:25:44;99611.56;;;11.46;65.46
48614;BME280;34408;51.426;5.444;2022-09-28T07:28:14;99611.81;;;11.44;65.49
48614;BME280;34408;51.426;5.444;2022-09-28T07:30:44;99607.75;;;11.41;65.49
48614;BME280;34408;51.426;5.444;2022-09-28T07:33:13;99621.22;;;11.41;65.63
48614;BME280;34408;51.426;5.444;2022-09-28T07:35:48;99613.16;;;11.41;65.84
48614;BME280;34408;51.426;5.444;2022-09-28T07:38:17;99610.72;;;11.40;65.84
48614;BME280;34408;51.426;5.444;2022-09-28T07:40:45;99619.59;;;11.40;65.87
48614;BME280;34408;51.426;5.444;2022-09-28T07:43:31;99611.53;;;11.40;65.85
48614;BME280;34408;51.426;5.444;2022-09-28T07:46:00;99620.41;;;11.41;65.80
48614;BME280;34408;51.426;5.444;2022-09-28T07:48:28;99612.59;;;11.39;65.83
48614;BME280;34408;51.426;5.444;2022-09-28T07:51:03;99619.13;;;11.49;65.80
48614;BME280;34408;51.426;5.444;2022-09-28T07:53:31;99631.03;;;11.58;65.58
48614;BME280;34408;51.426;5.444;2022-09-28T07:56:00;99617.88;;;11.61;64.94
48614;BME280;34408;51.426;5.444;2022-09-28T07:58:30;99632.34;;;11.87;64.62
48614;BME280;34408;51.426;5.444;2022-09-28T08:01:04;99631.34;;;12.03;64.20
48614;BME280;34408;51.426;5.444;2022-09-28T08:03:32;99630.31;;;12.15;63.42
48614;BME280;34408;51.426;5.444;2022-09-28T08:06:02;99631.66;;;12.17;63.43
48614;BME280;34408;51.426;5.444;2022-09-28T08:08:32;99631.66;;;12.17;63.39
48614;BME280;34408;51.426;5.444;2022-09-28T08:11:01;99629.22;;;12.16;63.66
48614;BME280;34408;51.426;5.444;2022-09-28T08:13:29;99642.69;;;12.11;63.90
48614;BME280;34408;51.426;5.444;2022-09-28T08:16:00;99636.47;;;12.05;64.10
48614;BME280;34408;51.426;5.444;2022-09-28T08:18:30;99641.56;;;12.01;64.17
48614;BME280;34408;51.426;5.444;2022-09-28T08:20:57;99646.94;;;11.96;64.36
48614;BME280;34408;51.426;5.444;2022-09-28T08:23:43;99634.78;;;11.94;64.59
48614;BME280;34408;51.426;5.444;2022-09-28T08:26:11;99639.09;;;11.90;64.87
48614;BME280;34408;51.426;5.444;2022-09-28T08:28:41;99630.94;;;11.80;64.82
48614;BME280;34408;51.426;5.444;2022-09-28T08:31:10;99646.31;;;11.84;65.36
48614;BME280;34408;51.426;5.444;2022-09-28T08:33:40;99639.06;;;11.85;65.15
48614;BME280;34408;51.426;5.444;2022-09-28T08:36:09;99650.63;;;11.85;65.29
48614;BME280;34408;51.426;5.444;2022-09-28T08:38:37;99648.75;;;11.86;65.81
48614;BME280;34408;51.426;5.444;2022-09-28T08:41:13;99648.19;;;11.84;65.41
48614;BME280;34408;51.426;5.444;2022-09-28T08:44:02;99651.69;;;11.84;65.62
48614;BME280;34408;51.426;5.444;2022-09-28T08:46:35;99657.84;;;11.80;65.53
48614;BME280;34408;51.426;5.444;2022-09-28T08:49:08;99658.13;;;11.78;65.80
48614;BME280;34408;51.426;5.444;2022-09-28T08:51:56;99654.84;;;11.76;65.99
48614;BME280;34408;51.426;5.444;2022-09-28T08:54:34;99655.34;;;11.73;66.27
48614;BME280;34408;51.426;5.444;2022-09-28T08:57:06;99660.19;;;11.71;66.42
48614;BME280;34408;51.426;5.444;2022-09-28T08:59:48;99673.38;;;11.72;66.17
48614;BME280;34408;51.426;5.444;2022-09-28T09:02:21;99672.03;;;11.70;66.54
48614;BME280;34408;51.426;5.444;2022-09-28T09:04:52;99674.72;;;11.70;66.59
48614;BME280;34408;51.426;5.444;2022-09-28T09:07:31;99677.97;;;11.72;66.55
48614;BME280;34408;51.426;5.444;2022-09-28T09:10:10;99679.06;;;11.76;66.50
48614;BME280;34408;51.426;5.444;2022-09-28T09:12:45;99678.50;;;11.74;66.78
48614;BME280;34408;51.426;5.444;2022-09-28T09:15:32;99686.03;;;11.72;66.81
48614;BME280;34408;51.426;5.444;2022-09-28T09:18:19;99684.41;;;11.71;67.05
48614;BME280;34408;51.426;5.444;2022-09-28T09:20:55;99685.22;;;11.71;67.25
48614;BME280;34408;51.426;5.444;2022-09-28T09:23:37;99694.41;;;11.76;67.17
48614;BME280;34408;51.426;5.444;2022-09-28T09:26:12;99698.50;;;11.78;67.23
48614;BME280;34408;51.426;5.444;2022-09-28T09:28:59;99694.28;;;11.92;66.87
48614;BME280;34408;51.426;5.444;2022-09-28T09:31:42;99690.38;;;12.10;66.57
48614;BME280;34408;51.426;5.444;2022-09-28T09:34:36;99706.09;;;12.33;66.45
48614;BME280;34408;51.426;5.444;2022-09-28T09:37:20;99700.28;;;12.57;65.74
48614;BME280;34408;51.426;5.444;2022-09-28T09:40:02;99699.84;;;12.80;65.14
48614;BME280;34408;51.426;5.444;2022-09-28T09:42:44;99699.38;;;12.98;64.51
48614;BME280;34408;51.426;5.444;2022-09-28T09:45:39;99698.03;;;13.06;64.29
48614;BME280;34408;51.426;5.444;2022-09-28T09:48:15;99706.66;;;13.08;64.21
48614;BME280;34408;51.426;5.444;2022-09-28T09:50:48;99703.69;;;13.04;63.85
48614;BME280;34408;51.426;5.444;2022-09-28T09:53:25;99711.78;;;12.99;63.94
48614;BME280;34408;51.426;5.444;2022-09-28T09:55:54;99700.94;;;12.89;64.38
48614;BME280;34408;51.426;5.444;2022-09-28T09:58:27;99700.38;;;12.82;64.73
48614;BME280;34408;51.426;5.444;2022-09-28T10:01:03;99695.25;;;12.81;64.92
48614;BME280;34408;51.426;5.444;2022-09-28T10:03:34;99690.41;;;12.78;65.30
48614;BME280;34408;51.426;5.444;2022-09-28T10:06:08;99699.81;;;12.75;65.41
48614;BME280;34408;51.426;5.444;2022-09-28T10:08:43;99697.66;;;12.72;65.45
48614;BME280;34408;51.426;5.444;2022-09-28T10:11:15;99703.84;;;12.67;65.39
48614;BME280;34408;51.426;5.444;2022-09-28T10:13:45;99691.16;;;12.63;65.85
48614;BME280;34408;51.426;5.444;2022-09-28T10:16:16;99696.53;;;12.63;65.58
48614;BME280;34408;51.426;5.444;2022-09-28T10:18:44;99700.03;;;12.63;65.65
48614;BME280;34408;51.426;5.444;2022-09-28T10:21:13;99699.25;;;12.63;65.94
48614;BME280;34408;51.426;5.444;2022-09-28T10:23:43;99702.19;;;12.61;65.95
48614;BME280;34408;51.426;5.444;2022-09-28T10:26:15;99691.66;;;12.55;65.73
48614;BME280;34408;51.426;5.444;2022-09-28T10:28:53;99697.34;;;12.63;65.82
48614;BME280;34408;51.426;5.444;2022-09-28T10:31:36;99695.47;;;12.64;66.01
48614;BME280;34408;51.426;5.444;2022-09-28T10:34:05;99692.50;;;12.65;66.05
48614;BME280;34408;51.426;5.444;2022-09-28T10:36:45;99700.34;;;12.67;66.06
48614;BME280;34408;51.426;5.444;2022-09-28T10:39:32;99698.19;;;12.69;66.20
48614;BME280;34408;51.426;5.444;2022-09-28T10:42:05;99691.72;;;12.70;66.07
48614;BME280;34408;51.426;5.444;2022-09-28T10:44:46;99690.91;;;12.69;66.28
48614;BME280;34408;51.426;5.444;2022-09-28T10:47:18;99696.84;;;12.71;66.27
48614;BME280;34408;51.426;5.444;2022-09-28T10:49:48;99691.72;;;12.70;66.13
48614;BME280;34408;51.426;5.444;2022-09-28T10:52:34;99689.84;;;12.70;65.87
48614;BME280;34408;51.426;5.444;2022-09-28T10:55:26;99691.19;;;12.73;66.24
48614;BME280;34408;51.426;5.444;2022-09-28T10:57:54;99681.75;;;12.76;66.58
48614;BME280;34408;51.426;5.444;2022-09-28T11:00:34;99695.78;;;12.78;65.87
48614;BME280;34408;51.426;5.444;2022-09-28T11:03:04;99691.22;;;12.78;66.06
48614;BME280;34408;51.426;5.444;2022-09-28T11:05:32;99693.63;;;12.80;65.71
48614;BME280;34408;51.426;5.444;2022-09-28T11:08:05;99693.63;;;12.80;65.57
48614;BME280;34408;51.426;5.444;2022-09-28T11:10:34;99705.50;;;12.79;65.94
48614;BME280;34408;51.426;5.444;2022-09-28T11:13:02;99696.34;;;12.80;65.54
48614;BME280;34408;51.426;5.444;2022-09-28T11:15:40;99693.38;;;12.81;65.48
48614;BME280;34408;51.426;5.444;2022-09-28T11:18:24;99693.09;;;12.83;65.53
48614;BME280;34408;51.426;5.444;2022-09-28T11:21:06;99695.53;;;12.84;65.27
48614;BME280;34408;51.426;5.444;2022-09-28T11:23:38;99696.91;;;12.87;64.94
48614;BME280;34408;51.426;5.444;2022-09-28T11:26:09;99695.00;;;12.87;65.15
48614;BME280;34408;51.426;5.444;2022-09-28T11:28:49;99699.88;;;12.85;65.11
48614;BME280;34408;51.426;5.444;2022-09-28T11:31:24;99696.09;;;12.86;64.66
48614;BME280;34408;51.426;5.444;2022-09-28T11:34:02;99700.41;;;12.87;64.72
48614;BME280;34408;51.426;5.444;2022-09-28T11:36:42;99702.03;;;12.88;64.72
48614;BME280;34408;51.426;5.444;2022-09-28T11:39:20;99695.81;;;12.88;64.81
48614;BME280;34408;51.426;5.444;2022-09-28T11:42:03;99687.47;;;12.89;64.34
48614;BME280;34408;51.426;5.444;2022-09-28T11:44:42;99695.28;;;12.91;64.63
48614;BME280;34408;51.426;5.444;2022-09-28T11:47:46;99692.34;;;12.92;64.89
48614;BME280;34408;51.426;5.444;2022-09-28T11:50:25;99692.34;;;12.97;64.94
48614;BME280;34408;51.426;5.444;2022-09-28T11:53:02;99685.06;;;12.98;64.59
48614;BME280;34408;51.426;5.444;2022-09-28T11:55:33;99682.66;;;13.01;64.79
48614;BME280;34408;51.426;5.444;2022-09-28T11:58:09;99673.22;;;13.04;64.76
48614;BME280;34408;51.426;5.444;2022-09-28T12:00:42;99689.94;;;13.11;64.36
48614;BME280;34408;51.426;5.444;2022-09-28T12:03:15;99694.53;;;13.16;64.31
48614;BME280;34408;51.426;5.444;2022-09-28T12:05:48;99689.47;;;13.19;64.50
48614;BME280;34408;51.426;5.444;2022-09-28T12:08:22;99679.22;;;13.21;64.61
48614;BME280;34408;51.426;5.444;2022-09-28T12:10:57;99684.06;;;13.24;64.09
48614;BME280;34408;51.426;5.444;2022-09-28T12:13:32;99674.38;;;13.28;63.98
48614;BME280;34408;51.426;5.444;2022-09-28T12:16:03;99675.44;;;13.27;64.36
48614;BME280;34408;51.426;5.444;2022-09-28T12:18:56;99674.09;;;13.30;64.44
48614;BME280;34408;51.426;5.444;2022-09-28T12:21:35;99676.53;;;13.31;64.67
48614;BME280;34408;51.426;5.444;2022-09-28T12:24:11;99673.56;;;13.38;63.60
48614;BME280;34408;51.426;5.444;2022-09-28T12:26:46;99677.06;;;13.44;63.06
48614;BME280;34408;51.426;5.444;2022-09-28T12:29:20;99683.28;;;13.44;63.30
48614;BME280;34408;51.426;5.444;2022-09-28T12:31:54;99679.50;;;13.55;62.81
48614;BME280;34408;51.426;5.444;2022-09-28T12:34:24;99677.09;;;13.54;63.36
48614;BME280;34408;51.426;5.444;2022-09-28T12:37:19;99679.78;;;13.59;63.92
48614;BME280;34408;51.426;5.444;2022-09-28T12:40:00;99679.50;;;13.55;63.38
48614;BME280;34408;51.426;5.444;2022-09-28T12:42:46;99684.91;;;13.55;62.98
48614;BME280;34408;51.426;5.444;2022-09-28T12:45:30;99686.53;;;13.56;62.90
48614;BME280;34408;51.426;5.444;2022-09-28T12:48:38;99674.91;;;13.56;63.47
48614;BME280;34408;51.426;5.444;2022-09-28T12:51:41;99677.09;;;13.54;63.45
48614;BME280;34408;51.426;5.444;2022-09-28T12:54:24;99677.09;;;13.54;62.82
48614;BME280;34408;51.426;5.444;2022-09-28T12:57:08;99678.69;;;13.55;62.80
48614;BME280;34408;51.426;5.444;2022-09-28T12:59:49;99684.09;;;13.55;62.28
48614;BME280;34408;51.426;5.444;2022-09-28T13:05:57;99695.44;;;13.52;63.03
48614;BME280;34408;51.426;5.444;2022-09-28T13:08:35;99693.81;;;13.51;62.83
48614;BME280;34408;51.426;5.444;2022-09-28T13:11:16;99702.19;;;13.49;62.95
48614;BME280;34408;51.426;5.444;2022-09-28T13:13:56;99700.81;;;13.47;63.35
48614;BME280;34408;51.426;5.444;2022-09-28T13:16:34;99697.31;;;13.46;63.08
48614;BME280;34408;51.426;5.444;2022-09-28T13:19:13;99705.41;;;13.46;63.90
48614;BME280;34408;51.426;5.444;2022-09-28T13:21:46;99709.75;;;13.47;63.88
48614;BME280;34408;51.426;5.444;2022-09-28T13:24:21;99714.06;;;13.48;63.58
48614;BME280;34408;51.426;5.444;2022-09-28T13:27:03;99714.88;;;13.49;64.03
48614;BME280;34408;51.426;5.444;2022-09-28T13:29:32;99714.59;;;13.50;64.33
48614;BME280;34408;51.426;5.444;2022-09-28T13:32:01;99714.59;;;13.50;64.42
48614;BME280;34408;51.426;5.444;2022-09-28T13:34:32;99710.56;;;13.48;64.29
48614;BME280;34408;51.426;5.444;2022-09-28T13:37:22;99709.75;;;13.47;64.81
48614;BME280;34408;51.426;5.444;2022-09-28T13:39:51;99705.97;;;13.48;64.96